createdAt,value
2023-05-24T00:01:25.918Z,19.60
2023-05-24T00:04:30.584Z,19.60
2023-05-24T00:07:32.806Z,19.60
2023-05-24T00:10:38.546Z,19.60
2023-05-24T00:13:41.032Z,19.60
2023-05-24T00:16:43.255Z,19.60
2023-05-24T00:19:45.700Z,19.60
2023-05-24T00:22:47.844Z,19.60
2023-05-24T00:25:49.902Z,19.60
2023-05-24T00:28:53.320Z,19.60
2023-05-24T00:31:55.829Z,19.70
2023-05-24T00:34:58.129Z,19.60
2023-05-24T00:38:00.239Z,19.50
2023-05-24T00:41:02.430Z,19.50
2023-05-24T00:44:04.514Z,19.50
2023-05-24T00:47:06.868Z,19.40
2023-05-24T00:50:13.249Z,19.40
2023-05-24T00:53:15.973Z,19.40
2023-05-24T00:56:18.166Z,19.40
2023-05-24T00:59:20.481Z,19.30
2023-05-24T01:02:25.536Z,19.30
2023-05-24T01:05:27.788Z,19.30
2023-05-24T01:08:39.447Z,19.30
2023-05-24T01:11:50.631Z,19.30
2023-05-24T01:15:05.075Z,19.20
2023-05-24T01:18:42.015Z,19.20
2023-05-24T01:22:02.001Z,19.20
2023-05-24T01:25:18.242Z,19.20
2023-05-24T01:28:21.538Z,19.20
2023-05-24T01:31:24.951Z,19.10
2023-05-24T01:34:27.331Z,19.10
2023-05-24T01:37:29.456Z,19.10
2023-05-24T01:40:31.635Z,18.90
2023-05-24T01:43:48.958Z,18.80
2023-05-24T01:47:02.169Z,18.80
2023-05-24T01:50:29.207Z,18.80
2023-05-24T01:53:35.048Z,18.70
2023-05-24T01:56:38.232Z,18.70
2023-05-24T01:59:44.380Z,18.70
2023-05-24T02:02:46.933Z,18.70
2023-05-24T02:05:49.362Z,18.70
2023-05-24T02:08:53.415Z,18.60
2023-05-24T02:11:55.646Z,18.70
2023-05-24T02:14:58.186Z,18.60
2023-05-24T02:18:01.640Z,18.60
2023-05-24T02:21:03.834Z,18.60
2023-05-24T02:24:07.873Z,18.60
2023-05-24T02:27:10.751Z,18.50
2023-05-24T02:30:13.768Z,18.50
2023-05-24T02:33:16.098Z,18.40
2023-05-24T02:36:18.324Z,18.50
2023-05-24T02:39:20.763Z,18.50
2023-05-24T02:42:23.123Z,18.50
2023-05-24T02:45:25.258Z,18.50
2023-05-24T02:48:27.567Z,18.50
2023-05-24T02:51:29.841Z,18.50
2023-05-24T02:54:31.994Z,18.50
2023-05-24T02:57:34.461Z,18.40
2023-05-24T03:00:37.295Z,18.30
2023-05-24T03:03:40.251Z,18.30
2023-05-24T03:06:42.717Z,18.20
2023-05-24T03:09:44.900Z,18.20
2023-05-24T03:12:47.030Z,18.20
2023-05-24T03:15:49.424Z,18.20
2023-05-24T03:18:52.053Z,18.20
2023-05-24T03:21:54.226Z,18.20
2023-05-24T03:24:56.426Z,18.20
2023-05-24T03:27:58.604Z,18.20
2023-05-24T03:31:01.138Z,18.20
2023-05-24T03:34:03.370Z,18.20
2023-05-24T03:37:05.702Z,18.30
2023-05-24T03:40:08.419Z,18.30
2023-05-24T03:43:11.024Z,18.30
2023-05-24T03:46:13.206Z,18.30
2023-05-24T03:49:15.473Z,18.30
2023-05-24T03:52:17.792Z,18.30
2023-05-24T03:55:20.074Z,18.30
2023-05-24T03:58:22.647Z,18.30
2023-05-24T04:01:33.478Z,18.30
2023-05-24T04:04:39.603Z,18.30
2023-05-24T04:07:42.480Z,18.30
2023-05-24T04:10:44.966Z,18.20
2023-05-24T04:13:47.239Z,18.20
2023-05-24T04:17:26.243Z,18.20
2023-05-24T04:20:32.244Z,18.20
2023-05-24T04:23:34.841Z,18.10
2023-05-24T04:26:38.211Z,18.10
2023-05-24T04:29:42.307Z,18.20
2023-05-24T04:32:44.785Z,18.20
2023-05-24T04:35:47.910Z,18.20
2023-05-24T04:38:50.543Z,18.20
2023-05-24T04:41:53.554Z,18.10
2023-05-24T04:44:55.840Z,18.10
2023-05-24T04:47:57.976Z,18.10
2023-05-24T04:51:01.236Z,18.10
2023-05-24T04:54:08.866Z,18.10
2023-05-24T04:57:11.295Z,18.10
2023-05-24T05:00:14.018Z,18.10
2023-05-24T05:03:17.187Z,18.20
2023-05-24T05:06:19.498Z,18.20
2023-05-24T05:09:22.735Z,18.20
2023-05-24T05:12:24.938Z,18.20
2023-05-24T05:15:28.009Z,18.20
2023-05-24T05:18:30.178Z,18.20
2023-05-24T05:21:36.757Z,18.20
2023-05-24T05:24:38.955Z,18.20
2023-05-24T05:27:41.177Z,18.20
2023-05-24T05:30:43.556Z,18.20
2023-05-24T05:33:46.904Z,18.20
2023-05-24T05:36:50.147Z,18.20
2023-05-24T05:39:52.332Z,18.30
2023-05-24T05:42:54.562Z,18.30
2023-05-24T05:45:56.796Z,18.30
2023-05-24T05:48:59.078Z,18.40
2023-05-24T05:52:01.201Z,18.50
2023-05-24T05:55:04.932Z,18.50
2023-05-24T05:58:07.060Z,18.60
2023-05-24T06:01:09.745Z,18.80
2023-05-24T06:04:12.123Z,19.10
2023-05-24T06:07:14.515Z,19.50
2023-05-24T06:10:16.810Z,19.80
2023-05-24T06:13:19.032Z,20.10
2023-05-24T06:16:21.503Z,20.30
2023-05-24T06:19:24.090Z,20.40
2023-05-24T06:22:28.235Z,20.60
2023-05-24T06:25:31.115Z,21.00
2023-05-24T06:28:33.171Z,21.10
2023-05-24T06:31:35.732Z,21.30
2023-05-24T06:34:38.165Z,21.40
2023-05-24T06:37:40.952Z,21.40
2023-05-24T06:40:43.217Z,21.40
2023-05-24T06:43:46.408Z,21.50
2023-05-24T06:46:48.651Z,21.80
2023-05-24T06:49:51.498Z,21.90
2023-05-24T06:52:53.587Z,22.00
2023-05-24T06:55:57.497Z,22.10
2023-05-24T06:59:00.190Z,22.80
2023-05-24T07:02:03.881Z,23.80
2023-05-24T07:05:06.801Z,24.60
2023-05-24T07:08:09.789Z,25.30
2023-05-24T07:11:12.316Z,25.90
2023-05-24T07:14:14.545Z,26.10
2023-05-24T07:17:16.967Z,26.50
2023-05-24T07:20:19.393Z,27.00
2023-05-24T07:23:21.470Z,27.50
2023-05-24T07:26:23.892Z,27.70
2023-05-24T07:29:26.275Z,28.10
2023-05-24T07:32:29.651Z,28.30
2023-05-24T07:35:32.978Z,28.30
2023-05-24T07:38:36.275Z,28.60
2023-05-24T07:41:38.564Z,28.20
2023-05-24T07:44:40.863Z,28.50
2023-05-24T07:47:43.215Z,28.70
2023-05-24T07:50:48.909Z,28.80
2023-05-24T07:53:51.154Z,29.30
2023-05-24T07:56:53.478Z,29.50
2023-05-24T07:59:55.711Z,29.50
2023-05-24T08:02:58.090Z,29.50
2023-05-24T08:06:00.449Z,29.60
2023-05-24T08:09:04.614Z,29.80
2023-05-24T08:12:07.361Z,30.10
2023-05-24T08:15:10.065Z,30.00
2023-05-24T08:18:12.227Z,30.10
2023-05-24T08:21:14.408Z,30.30
2023-05-24T08:24:16.648Z,30.70
2023-05-24T08:27:19.264Z,30.50
2023-05-24T08:30:21.631Z,30.90
2023-05-24T08:33:23.896Z,30.90
2023-05-24T08:36:26.199Z,31.40
2023-05-24T08:39:28.499Z,31.20
2023-05-24T08:42:32.176Z,30.80
2023-05-24T08:45:37.050Z,31.00
2023-05-24T08:48:47.206Z,30.80
2023-05-24T08:51:52.219Z,30.70
2023-05-24T08:54:55.068Z,30.60
2023-05-24T08:57:57.883Z,30.80
2023-05-24T09:01:02.685Z,30.80
2023-05-24T09:04:06.515Z,30.40
2023-05-24T09:07:09.483Z,30.70
2023-05-24T09:10:12.056Z,30.70
2023-05-24T09:13:16.042Z,31.00
2023-05-24T09:16:18.260Z,31.60
2023-05-24T09:19:21.347Z,31.70
2023-05-24T09:22:26.318Z,31.70
2023-05-24T09:25:30.032Z,31.90
2023-05-24T09:28:34.153Z,31.60
2023-05-24T09:31:39.593Z,31.70
2023-05-24T09:34:43.094Z,32.20
2023-05-24T09:37:47.345Z,32.00
2023-05-24T09:41:01.863Z,32.00
2023-05-24T09:44:04.531Z,32.40
2023-05-24T09:47:07.015Z,32.90
2023-05-24T09:50:17.638Z,33.20
2023-05-24T09:53:23.459Z,32.30
2023-05-24T09:56:25.795Z,33.00
2023-05-24T09:59:28.555Z,33.50
2023-05-24T10:02:41.276Z,33.50
2023-05-24T10:05:50.284Z,33.60
2023-05-24T10:08:54.453Z,33.80
2023-05-24T10:11:56.818Z,33.40
2023-05-24T10:15:00.147Z,33.20
2023-05-24T10:18:09.912Z,32.40
2023-05-24T10:21:14.432Z,32.30
2023-05-24T10:24:19.930Z,32.60
2023-05-24T10:27:25.124Z,32.40
2023-05-24T10:30:33.620Z,32.70
2023-05-24T10:33:40.528Z,33.20
2023-05-24T10:36:44.374Z,33.10
2023-05-24T10:39:46.731Z,33.50
2023-05-24T10:42:49.482Z,34.00
2023-05-24T10:45:51.924Z,33.60
2023-05-24T10:49:01.502Z,32.80
2023-05-24T10:52:08.937Z,32.70
2023-05-24T10:55:12.853Z,32.90
2023-05-24T10:58:15.903Z,32.40
2023-05-24T11:01:31.154Z,32.70
2023-05-24T11:04:36.788Z,33.10
2023-05-24T11:07:45.286Z,33.30
2023-05-24T11:10:47.729Z,33.20
2023-05-24T11:13:58.115Z,32.90
2023-05-24T11:17:00.839Z,33.10
2023-05-24T11:20:05.587Z,33.40
2023-05-24T11:23:11.798Z,33.80
2023-05-24T11:26:15.276Z,33.60
2023-05-24T11:29:18.253Z,33.10
2023-05-24T11:32:23.495Z,32.60
2023-05-24T11:35:30.075Z,31.50
2023-05-24T11:38:34.993Z,30.50
2023-05-24T11:41:40.590Z,30.00
2023-05-24T11:44:42.805Z,29.30
2023-05-24T11:47:45.190Z,29.00
2023-05-24T11:50:50.353Z,28.80
2023-05-24T11:53:54.717Z,28.70
2023-05-24T11:56:57.510Z,28.40
2023-05-24T11:59:59.691Z,28.20
2023-05-24T12:03:07.433Z,28.10
2023-05-24T12:06:10.706Z,28.00
2023-05-24T12:09:16.909Z,27.90
2023-05-24T12:12:24.320Z,27.90
2023-05-24T12:15:29.349Z,27.70
2023-05-24T12:18:31.453Z,27.10
2023-05-24T12:21:35.422Z,27.10
2023-05-24T12:24:38.293Z,26.90
2023-05-24T12:27:47.880Z,26.90
2023-05-24T12:30:50.317Z,26.90
2023-05-24T12:33:54.312Z,26.90
2023-05-24T12:36:57.094Z,26.60
2023-05-24T12:40:01.597Z,26.00
2023-05-24T12:43:05.522Z,26.00
2023-05-24T12:46:07.961Z,26.40
2023-05-24T12:49:11.800Z,26.60
2023-05-24T12:52:14.816Z,26.70
2023-05-24T12:55:17.314Z,26.90
2023-05-24T12:58:20.006Z,26.70
2023-05-24T13:01:22.191Z,26.30
2023-05-24T13:04:27.771Z,26.20
2023-05-24T13:07:31.215Z,26.40
2023-05-24T13:10:33.443Z,26.40
2023-05-24T13:13:35.828Z,26.40
2023-05-24T13:16:37.977Z,26.20
2023-05-24T13:19:40.073Z,26.40
2023-05-24T13:22:42.392Z,26.20
2023-05-24T13:25:44.507Z,26.30
2023-05-24T13:29:15.091Z,26.60
2023-05-24T13:32:08.709Z,26.60
2023-05-24T13:35:11.556Z,26.90
2023-05-24T13:38:13.899Z,27.00
2023-05-24T13:41:16.141Z,26.70
2023-05-24T13:44:18.577Z,26.60
2023-05-24T13:47:31.193Z,26.60
2023-05-24T13:50:41.359Z,26.70
2023-05-24T13:53:43.874Z,26.60
2023-05-24T13:56:49.070Z,26.80
2023-05-24T13:59:51.373Z,26.50
2023-05-24T14:02:53.920Z,26.50
2023-05-24T14:05:56.420Z,26.60
2023-05-24T14:08:59.371Z,26.60
2023-05-24T14:12:03.425Z,26.80
2023-05-24T14:15:06.709Z,27.10
2023-05-24T14:18:09.215Z,27.40
2023-05-24T14:21:11.744Z,27.60
2023-05-24T14:24:13.860Z,27.70
2023-05-24T14:27:15.936Z,27.80
2023-05-24T14:30:18.035Z,28.00
2023-05-24T14:33:20.160Z,28.10
2023-05-24T14:36:22.471Z,28.40
2023-05-24T14:39:25.067Z,28.60
2023-05-24T14:42:27.200Z,28.90
2023-05-24T14:45:29.238Z,28.90
2023-05-24T14:48:31.400Z,28.10
2023-05-24T14:51:33.611Z,28.00
2023-05-24T14:54:36.904Z,27.50
2023-05-24T14:57:39.171Z,27.00
2023-05-24T15:00:42.778Z,27.10
2023-05-24T15:03:45.219Z,27.10
2023-05-24T15:06:47.475Z,27.50
2023-05-24T15:09:49.569Z,27.60
2023-05-24T15:12:52.202Z,27.90
2023-05-24T15:15:56.680Z,28.10
2023-05-24T15:18:59.573Z,28.20
2023-05-24T15:22:01.698Z,28.50
2023-05-24T15:25:04.092Z,28.50
2023-05-24T15:28:06.296Z,28.60
2023-05-24T15:31:08.523Z,28.60
2023-05-24T15:34:10.988Z,28.50
2023-05-24T15:37:13.332Z,28.50
2023-05-24T15:40:16.262Z,28.40
2023-05-24T15:43:19.157Z,27.90
2023-05-24T15:46:22.046Z,27.40
2023-05-24T15:49:24.262Z,26.90
2023-05-24T15:52:26.591Z,26.90
2023-05-24T15:55:28.770Z,27.20
2023-05-24T15:58:31.090Z,27.50
2023-05-24T16:01:33.204Z,27.70
2023-05-24T16:04:35.375Z,27.70
2023-05-24T16:07:37.534Z,27.90
2023-05-24T16:10:39.692Z,28.00
2023-05-24T16:13:41.912Z,28.20
2023-05-24T16:16:45.468Z,28.30
2023-05-24T16:19:49.623Z,28.30
2023-05-24T16:22:51.915Z,28.40
2023-05-24T16:25:54.140Z,28.40
2023-05-24T16:28:56.418Z,28.30
2023-05-24T16:31:58.754Z,28.40
2023-05-24T16:35:00.956Z,28.20
2023-05-24T16:38:03.344Z,27.90
2023-05-24T16:41:06.215Z,27.80
2023-05-24T16:44:08.465Z,27.70
2023-05-24T16:47:10.731Z,27.70
2023-05-24T16:50:16.148Z,27.50
2023-05-24T16:53:20.490Z,27.40
2023-05-24T16:56:23.400Z,27.20
2023-05-24T16:59:25.498Z,27.20
2023-05-24T17:02:27.708Z,27.30
2023-05-24T17:05:29.811Z,27.30
2023-05-24T17:08:37.194Z,27.20
2023-05-24T17:11:39.280Z,27.20
2023-05-24T17:14:41.558Z,27.20
2023-05-24T17:17:43.682Z,27.10
2023-05-24T17:20:46.225Z,27.00
2023-05-24T17:23:48.704Z,27.00
2023-05-24T17:26:50.890Z,27.00
2023-05-24T17:29:53.038Z,27.00
2023-05-24T17:32:55.273Z,27.10
2023-05-24T17:35:57.748Z,27.00
2023-05-24T17:38:59.928Z,26.90
2023-05-24T17:42:03.032Z,26.70
2023-05-24T17:45:06.757Z,26.70
2023-05-24T17:48:10.322Z,26.70
2023-05-24T17:51:12.935Z,26.40
2023-05-24T17:54:15.048Z,26.40
2023-05-24T17:57:17.237Z,26.40
2023-05-24T18:00:19.732Z,26.20
2023-05-24T18:03:21.825Z,26.00
2023-05-24T18:06:24.191Z,26.00
2023-05-24T18:09:30.495Z,25.80
2023-05-24T18:12:32.654Z,25.80
2023-05-24T18:15:35.210Z,25.70
2023-05-24T18:18:41.023Z,25.50
2023-05-24T18:21:43.074Z,25.50
2023-05-24T18:24:45.389Z,25.50
2023-05-24T18:27:47.844Z,25.30
2023-05-24T18:30:52.776Z,25.30
2023-05-24T18:33:55.248Z,25.20
2023-05-24T18:36:57.538Z,25.10
2023-05-24T18:40:00.493Z,25.10
2023-05-24T18:43:02.939Z,25.10
2023-05-24T18:46:05.200Z,25.10
2023-05-24T18:49:11.012Z,25.00
2023-05-24T18:52:13.284Z,24.90
2023-05-24T18:55:15.997Z,24.90
2023-05-24T18:58:18.163Z,24.90
2023-05-24T19:01:20.331Z,24.90
2023-05-24T19:04:22.876Z,24.90
2023-05-24T19:07:26.046Z,24.80
2023-05-24T19:10:28.106Z,24.70
2023-05-24T19:13:31.691Z,24.60
2023-05-24T19:16:33.961Z,24.50
2023-05-24T19:19:36.244Z,24.40
2023-05-24T19:22:38.311Z,24.40
2023-05-24T19:25:42.213Z,24.30
2023-05-24T19:28:50.474Z,24.20
2023-05-24T19:31:52.724Z,24.10
2023-05-24T19:34:56.454Z,24.10
2023-05-24T19:38:01.814Z,23.90
2023-05-24T19:41:04.211Z,23.80
2023-05-24T19:44:06.329Z,23.80
2023-05-24T19:47:08.439Z,23.80
2023-05-24T19:50:11.860Z,23.70
2023-05-24T19:53:15.655Z,23.60
2023-05-24T19:56:17.842Z,23.50
2023-05-24T19:59:20.031Z,23.40
2023-05-24T20:02:22.544Z,23.40
2023-05-24T20:05:24.824Z,23.40
2023-05-24T20:08:30.547Z,23.40
2023-05-24T20:11:32.758Z,23.40
2023-05-24T20:14:34.967Z,23.40
2023-05-24T20:17:37.248Z,23.40
2023-05-24T20:20:39.403Z,23.40
2023-05-24T20:23:41.965Z,23.40
2023-05-24T20:26:44.256Z,23.30
2023-05-24T20:29:46.779Z,23.30
2023-05-24T20:32:49.252Z,23.20
2023-05-24T20:35:53.160Z,23.20
2023-05-24T20:38:55.338Z,23.20
2023-05-24T20:41:58.572Z,23.20
2023-05-24T20:45:01.030Z,23.20
2023-05-24T20:48:03.315Z,23.20
2023-05-24T20:51:07.292Z,23.10
2023-05-24T20:54:12.055Z,23.00
2023-05-24T20:57:14.306Z,22.90
2023-05-24T21:00:16.551Z,22.90
2023-05-24T21:03:19.000Z,22.80
2023-05-24T21:06:21.908Z,22.80
2023-05-24T21:09:24.173Z,22.60
2023-05-24T21:12:26.408Z,22.60
2023-05-24T21:15:28.553Z,22.50
2023-05-24T21:18:33.445Z,22.40
2023-05-24T21:21:36.208Z,22.40
2023-05-24T21:24:38.418Z,22.40
2023-05-24T21:27:40.593Z,22.40
2023-05-24T21:30:43.048Z,22.40
2023-05-24T21:33:45.269Z,22.40
2023-05-24T21:36:47.359Z,22.40
2023-05-24T21:39:50.010Z,22.30
2023-05-24T21:42:52.203Z,22.40
2023-05-24T21:45:54.255Z,22.40
2023-05-24T21:48:57.461Z,22.40
2023-05-24T21:51:59.631Z,22.30
2023-05-24T21:55:01.783Z,22.30
2023-05-24T21:58:03.951Z,22.30
2023-05-24T22:01:06.206Z,22.30
2023-05-24T22:04:09.307Z,22.20
2023-05-24T22:07:11.729Z,22.20
2023-05-24T22:10:13.917Z,22.20
2023-05-24T22:13:16.253Z,22.10
2023-05-24T22:16:18.675Z,22.20
2023-05-24T22:19:38.889Z,22.20
2023-05-24T22:22:48.727Z,22.20
2023-05-24T22:25:51.015Z,22.20
2023-05-24T22:28:54.998Z,22.10
2023-05-24T22:32:00.978Z,22.10
2023-05-24T22:35:05.814Z,22.00
2023-05-24T22:38:08.277Z,22.00
2023-05-24T22:41:10.344Z,21.90
2023-05-24T22:44:13.850Z,22.00
2023-05-24T22:47:17.075Z,22.00
2023-05-24T22:50:19.302Z,22.00
2023-05-24T22:53:21.429Z,22.00
2023-05-24T22:56:23.778Z,21.90
2023-05-24T22:59:26.102Z,22.00
2023-05-24T23:02:29.358Z,22.00
2023-05-24T23:05:31.946Z,22.00
2023-05-24T23:08:34.367Z,21.90
2023-05-24T23:11:36.635Z,22.00
2023-05-24T23:14:41.724Z,21.90
2023-05-24T23:17:44.504Z,21.90
2023-05-24T23:20:46.872Z,21.90
2023-05-24T23:23:49.442Z,21.90
2023-05-24T23:26:51.532Z,21.80
2023-05-24T23:29:53.636Z,21.80
2023-05-24T23:32:55.816Z,21.80
2023-05-24T23:35:58.019Z,21.80
2023-05-24T23:39:00.207Z,21.80
2023-05-24T23:42:02.670Z,21.80
2023-05-24T23:45:05.255Z,21.80
2023-05-24T23:48:10.944Z,21.80
2023-05-24T23:51:13.336Z,21.80
2023-05-24T23:54:15.917Z,21.80
2023-05-24T23:57:20.195Z,21.80
